Time;durP1;ratioP1;P1;durP2;ratioP2;P2;SDS_P1;SDS_P2;PMS_P1;PMS_P2;Temp;Humidity;BMP_temperature;BMP_pressure;BME280_temperature;BME280_humidity;BME280_pressure;Samples;Min_cycle;Max_cycle;Signal;HPM_P1;HPM_P2
2022/04/12 00:00:26;;;;;;;;;6.00;6.00;;;;;;;;5120627;27;45386;-76
2022/04/12 00:02:51;;;;;;;;;4.33;4.33;;;;;;;;5119537;27;45337;-77
2022/04/12 00:05:16;;;;;;;;;5.67;5.67;;;;;;;;5120772;27;45366;-76
2022/04/12 00:07:43;;;;;;;;;5.00;5.00;;;;;;;;5119302;27;46420;-76
2022/04/12 00:10:09;;;;;;;;;5.67;5.67;;;;;;;;5119174;27;45976;-76
2022/04/12 00:12:35;;;;;;;;;4.33;4.33;;;;;;;;5118980;27;45338;-77
2022/04/12 00:15:01;;;;;;;;;6.00;4.00;;;;;;;;5123880;27;45409;-76
2022/04/12 00:20:10;;;;;;;;;5.00;4.00;;;;;;;;5144827;27;45329;-76
2022/04/12 00:22:36;;;;;;;;;4.33;4.33;;;;;;;;5143589;27;45276;-76
2022/04/12 00:25:02;;;;;;;;;4.33;4.33;;;;;;;;5143604;27;45502;-77
2022/04/12 00:27:27;;;;;;;;;4.00;4.00;;;;;;;;5143541;27;45467;-77
2022/04/12 00:29:53;;;;;;;;;5.00;5.00;;;;;;;;5143470;27;47113;-77
2022/04/12 00:32:18;;;;;;;;;5.33;5.33;;;;;;;;5143304;27;45253;-76
2022/04/12 00:34:44;;;;;;;;;5.00;5.00;;;;;;;;5143533;27;45435;-76
2022/04/12 00:37:09;;;;;;;;;4.33;4.33;;;;;;;;5143181;27;45684;-75
2022/04/12 00:39:34;;;;;;;;;4.67;4.67;;;;;;;;5144797;27;45288;-76
2022/04/12 00:42:00;;;;;;;;;4.00;4.00;;;;;;;;5144760;27;45346;-76
2022/04/12 00:44:25;;;;;;;;;3.00;3.00;;;;;;;;5144845;27;45355;-76
2022/04/12 00:46:51;;;;;;;;;5.00;5.00;;;;;;;;5142949;27;45331;-76
2022/04/12 00:49:16;;;;;;;;;6.00;5.00;;;;;;;;5143025;27;47312;-76
2022/04/12 00:51:42;;;;;;;;;3.00;3.00;;;;;;;;5143183;27;45431;-76
2022/04/12 00:54:09;;;;;;;;;4.67;4.00;;;;;;;;5143267;27;45398;-77
2022/04/12 00:56:34;;;;;;;;;4.67;4.67;;;;;;;;5142882;27;47224;-76
2022/04/12 00:59:02;;;;;;;;;4.00;4.00;;;;;;;;5142794;27;47789;-77
2022/04/12 01:01:28;;;;;;;;;5.00;4.00;;;;;;;;5143043;27;46150;-77
2022/04/12 01:03:53;;;;;;;;;3.33;3.33;;;;;;;;5144463;27;45301;-77
2022/04/12 01:06:18;;;;;;;;;3.67;3.67;;;;;;;;5144414;27;45260;-76
2022/04/12 01:08:43;;;;;;;;;5.00;5.00;;;;;;;;5142657;27;48220;-78
2022/04/12 01:11:09;;;;;;;;;5.33;4.00;;;;;;;;5142953;27;45215;-77
2022/04/12 01:13:34;;;;;;;;;4.00;4.00;;;;;;;;5144215;27;45540;-77
2022/04/12 01:15:59;;;;;;;;;6.00;4.00;;;;;;;;5130292;27;45969;-77
2022/04/12 01:18:24;;;;;;;;;4.00;4.00;;;;;;;;5123356;27;45423;-77
2022/04/12 01:20:50;;;;;;;;;7.67;6.33;;;;;;;;5123305;27;45310;-77
2022/04/12 01:23:18;;;;;;;;;5.00;3.00;;;;;;;;5122851;27;45321;-76
2022/04/12 01:25:43;;;;;;;;;5.33;5.33;;;;;;;;5123122;27;45373;-76
2022/04/12 01:28:11;;;;;;;;;4.00;4.00;;;;;;;;5122959;27;46580;-76
2022/04/12 01:30:36;;;;;;;;;6.00;6.00;;;;;;;;5123060;27;45295;-76
2022/04/12 01:33:01;;;;;;;;;4.00;4.00;;;;;;;;5121633;27;45298;-76
2022/04/12 01:35:27;;;;;;;;;3.67;3.67;;;;;;;;5121730;27;46340;-76
2022/04/12 01:37:53;;;;;;;;;4.00;4.00;;;;;;;;5122832;27;47495;-75
2022/04/12 01:40:19;;;;;;;;;3.33;3.33;;;;;;;;5122999;27;45283;-76
2022/04/12 01:42:44;;;;;;;;;4.00;4.00;;;;;;;;5122881;27;45544;-76
2022/04/12 01:45:09;;;;;;;;;5.00;3.00;;;;;;;;5121508;27;45442;-76
2022/04/12 01:47:35;;;;;;;;;4.33;4.00;;;;;;;;5122591;27;45214;-76
2022/04/12 01:50:00;;;;;;;;;4.00;3.00;;;;;;;;5121513;27;45400;-76
2022/04/12 01:52:26;;;;;;;;;5.00;5.00;;;;;;;;5122680;27;45304;-77
2022/04/12 01:54:51;;;;;;;;;4.00;4.00;;;;;;;;5122774;27;45309;-76
2022/04/12 01:57:16;;;;;;;;;3.00;2.67;;;;;;;;5122466;27;45955;-76
2022/04/12 01:59:42;;;;;;;;;7.00;5.00;;;;;;;;5122711;27;45358;-76
2022/04/12 02:02:08;;;;;;;;;4.33;4.33;;;;;;;;5122718;27;45399;-76
2022/04/12 02:04:33;;;;;;;;;4.00;4.00;;;;;;;;5121197;27;46917;-76
2022/04/12 02:06:58;;;;;;;;;7.00;6.00;;;;;;;;5122438;27;46179;-76
2022/04/12 02:09:23;;;;;;;;;4.00;4.00;;;;;;;;5120982;27;45813;-76
2022/04/12 02:11:48;;;;;;;;;5.00;4.00;;;;;;;;5122559;27;45250;-77
2022/04/12 02:14:14;;;;;;;;;3.00;3.00;;;;;;;;5122493;27;45437;-76
2022/04/12 02:16:39;;;;;;;;;5.33;5.00;;;;;;;;5138899;27;47364;-76
2022/04/12 02:19:04;;;;;;;;;5.00;5.00;;;;;;;;5143141;27;45308;-77
2022/04/12 02:21:30;;;;;;;;;6.00;5.00;;;;;;;;5141858;27;45275;-76
2022/04/12 02:23:55;;;;;;;;;4.00;4.00;;;;;;;;5141613;27;46069;-76
2022/04/12 02:26:20;;;;;;;;;4.00;4.00;;;;;;;;5141543;27;48414;-77
2022/04/12 02:28:45;;;;;;;;;2.67;2.67;;;;;;;;5141667;27;45257;-75
2022/04/12 02:31:10;;;;;;;;;5.00;3.67;;;;;;;;5142958;27;45653;-75
2022/04/12 02:33:36;;;;;;;;;7.00;6.00;;;;;;;;5143057;27;45817;-75
2022/04/12 02:36:01;;;;;;;;;4.67;3.00;;;;;;;;5142826;27;46335;-76
2022/04/12 02:38:26;;;;;;;;;3.33;3.33;;;;;;;;5141960;27;45281;-76
2022/04/12 02:40:51;;;;;;;;;2.67;2.67;;;;;;;;5142978;27;45440;-76
2022/04/12 02:43:17;;;;;;;;;3.00;3.00;;;;;;;;5141283;27;45517;-76
2022/04/12 02:45:42;;;;;;;;;5.00;5.00;;;;;;;;5141183;27;47166;-76
2022/04/12 02:48:09;;;;;;;;;5.00;5.00;;;;;;;;5141216;27;45693;-76
2022/04/12 02:50:34;;;;;;;;;5.00;5.00;;;;;;;;5141511;27;45475;-76
2022/04/12 02:53:00;;;;;;;;;4.67;4.67;;;;;;;;5141028;27;46872;-75
2022/04/12 02:55:25;;;;;;;;;4.67;3.00;;;;;;;;5140890;27;46449;-77
2022/04/12 02:57:50;;;;;;;;;3.00;3.00;;;;;;;;5140989;27;46080;-75
2022/04/12 03:00:16;;;;;;;;;2.67;2.67;;;;;;;;5141224;27;45384;-76
2022/04/12 03:02:41;;;;;;;;;5.33;4.00;;;;;;;;5140978;27;46411;-76
2022/04/12 03:05:07;;;;;;;;;5.00;5.00;;;;;;;;5140843;27;47497;-76
2022/04/12 03:07:32;;;;;;;;;5.00;4.33;;;;;;;;5141026;27;45542;-75
2022/04/12 03:09:57;;;;;;;;;4.00;4.00;;;;;;;;5141040;27;45632;-76
2022/04/12 03:12:22;;;;;;;;;6.33;6.33;;;;;;;;5142120;27;45505;-76
2022/04/12 03:14:47;;;;;;;;;4.00;4.00;;;;;;;;5140044;27;45697;-76
2022/04/12 03:17:13;;;;;;;;;4.00;4.00;;;;;;;;5120226;27;45400;-76
2022/04/12 03:19:38;;;;;;;;;5.00;5.00;;;;;;;;5120126;27;45307;-76
2022/04/12 03:22:03;;;;;;;;;4.00;4.00;;;;;;;;5119332;27;45946;-76
2022/04/12 03:24:30;;;;;;;;;3.00;3.00;;;;;;;;5121377;27;46485;-76
2022/04/12 03:26:56;;;;;;;;;6.33;5.00;;;;;;;;5119554;27;45199;-76
2022/04/12 03:29:22;;;;;;;;;5.33;5.33;;;;;;;;5121264;27;45347;-75
2022/04/12 03:31:47;;;;;;;;;4.00;4.00;;;;;;;;5119799;27;45850;-76
2022/04/12 03:34:13;;;;;;;;;5.00;4.67;;;;;;;;5120991;27;45324;-76
2022/04/12 03:36:38;;;;;;;;;5.67;4.67;;;;;;;;5119628;27;45287;-75
2022/04/12 03:39:04;;;;;;;;;5.67;3.00;;;;;;;;5119785;27;45337;-75
2022/04/12 03:41:30;;;;;;;;;3.33;3.33;;;;;;;;5120899;27;45392;-76
2022/04/12 03:43:55;;;;;;;;;6.00;4.00;;;;;;;;5119510;27;48135;-76
2022/04/12 03:46:20;;;;;;;;;7.33;5.67;;;;;;;;5121030;27;45386;-76
2022/04/12 03:48:46;;;;;;;;;4.00;4.00;;;;;;;;5119561;27;45325;-75
2022/04/12 03:51:12;;;;;;;;;6.00;5.00;;;;;;;;5118376;27;45582;-76
2022/04/12 03:53:37;;;;;;;;;4.00;4.00;;;;;;;;5120715;27;45435;-75
2022/04/12 03:56:07;;;;;;;;;4.33;4.00;;;;;;;;5121006;27;45309;-76
2022/04/12 03:58:32;;;;;;;;;3.67;3.67;;;;;;;;5119454;27;45543;-76
2022/04/12 04:00:57;;;;;;;;;5.33;4.67;;;;;;;;5119463;27;46004;-75
2022/04/12 04:03:22;;;;;;;;;4.00;3.00;;;;;;;;5119230;27;47032;-76
2022/04/12 04:05:48;;;;;;;;;4.00;4.00;;;;;;;;5119519;27;45330;-76
2022/04/12 04:08:13;;;;;;;;;3.33;3.33;;;;;;;;5119393;27;45381;-76
2022/04/12 04:10:39;;;;;;;;;4.00;4.00;;;;;;;;5120752;27;45326;-77
2022/04/12 04:13:08;;;;;;;;;5.00;5.00;;;;;;;;5120529;27;45359;-78
2022/04/12 04:15:37;;;;;;;;;2.67;2.33;;;;;;;;5129250;27;45298;-78
2022/04/12 04:18:02;;;;;;;;;5.67;4.67;;;;;;;;5141456;27;45702;-78
2022/04/12 04:20:28;;;;;;;;;3.00;3.00;;;;;;;;5141276;27;45254;-76
2022/04/12 04:22:53;;;;;;;;;6.67;5.33;;;;;;;;5139738;27;47259;-77
2022/04/12 04:25:18;;;;;;;;;5.67;4.00;;;;;;;;5139802;27;45336;-77
2022/04/12 04:27:43;;;;;;;;;4.33;4.33;;;;;;;;5141325;27;45683;-77
2022/04/12 04:30:09;;;;;;;;;5.67;5.67;;;;;;;;5141193;27;45250;-77
2022/04/12 04:32:35;;;;;;;;;5.33;5.33;;;;;;;;5140818;27;46136;-77
2022/04/12 04:35:00;;;;;;;;;5.67;4.33;;;;;;;;5140936;27;45343;-77
2022/04/12 04:37:26;;;;;;;;;4.00;4.00;;;;;;;;5139866;27;45530;-77
2022/04/12 04:39:51;;;;;;;;;3.33;3.33;;;;;;;;5139533;27;45907;-76
2022/04/12 04:42:17;;;;;;;;;5.33;4.33;;;;;;;;5140694;27;45335;-77
2022/04/12 04:44:42;;;;;;;;;2.33;2.33;;;;;;;;5141193;27;45310;-77
2022/04/12 04:47:07;;;;;;;;;5.00;5.00;;;;;;;;5139405;27;45324;-77
2022/04/12 04:49:32;;;;;;;;;3.00;3.00;;;;;;;;5141010;27;45446;-77
2022/04/12 04:51:58;;;;;;;;;6.00;5.00;;;;;;;;5116261;27;45340;-77
2022/04/12 04:54:23;;;;;;;;;3.67;3.67;;;;;;;;5108273;27;45410;-78
2022/04/12 04:56:48;;;;;;;;;4.67;4.33;;;;;;;;5104212;27;45523;-78
2022/04/12 04:59:13;;;;;;;;;6.00;6.00;;;;;;;;5136119;27;45650;-77
2022/04/12 05:01:39;;;;;;;;;3.33;3.33;;;;;;;;5142620;27;46223;-77
2022/04/12 05:04:04;;;;;;;;;4.33;4.33;;;;;;;;5143679;27;45305;-76
2022/04/12 05:06:29;;;;;;;;;5.00;4.33;;;;;;;;5144318;27;45501;-76
2022/04/12 05:08:58;;;;;;;;;3.33;3.00;;;;;;;;5144380;27;45572;-77
2022/04/12 05:11:23;;;;;;;;;2.33;2.33;;;;;;;;5144032;27;45341;-75
2022/04/12 05:13:48;;;;;;;;;8.00;8.00;;;;;;;;5142828;27;45227;-73
2022/04/12 05:16:16;;;;;;;;;6.33;5.67;;;;;;;;5142809;27;45359;-74
2022/04/12 05:18:41;;;;;;;;;4.00;4.00;;;;;;;;5125647;27;45383;-74
2022/04/12 05:21:07;;;;;;;;;4.33;4.33;;;;;;;;5143940;27;45869;-75
2022/04/12 05:23:32;;;;;;;;;6.00;5.00;;;;;;;;5142556;27;45332;-75
2022/04/12 05:25:57;;;;;;;;;4.00;4.00;;;;;;;;5142692;27;45445;-74
2022/04/12 05:28:23;;;;;;;;;6.00;4.33;;;;;;;;5142467;27;45236;-76
2022/04/12 05:30:48;;;;;;;;;5.00;5.00;;;;;;;;5130475;27;45450;-74
2022/04/12 05:33:16;;;;;;;;;4.00;4.00;;;;;;;;5116750;27;45359;-74
2022/04/12 05:35:41;;;;;;;;;7.00;7.00;;;;;;;;5115634;27;45412;-74
2022/04/12 05:38:07;;;;;;;;;4.00;4.00;;;;;;;;5117588;27;45747;-74
2022/04/12 05:40:33;;;;;;;;;3.00;3.00;;;;;;;;5136692;27;47245;-76
2022/04/12 05:42:58;;;;;;;;;6.33;5.00;;;;;;;;5123061;27;45356;-75
2022/04/12 05:45:23;;;;;;;;;5.67;5.33;;;;;;;;5123110;27;45281;-76
2022/04/12 05:47:50;;;;;;;;;6.00;6.00;;;;;;;;5121221;27;45954;-76
2022/04/12 05:50:16;;;;;;;;;5.67;5.00;;;;;;;;5121567;27;47450;-75
2022/04/12 05:52:42;;;;;;;;;6.00;6.00;;;;;;;;5121186;27;46521;-75
2022/04/12 05:55:08;;;;;;;;;6.67;6.67;;;;;;;;5121388;27;45358;-76
2022/04/12 05:57:38;;;;;;;;;6.00;5.33;;;;;;;;5115575;27;45477;-77
2022/04/12 06:00:04;;;;;;;;;5.00;4.67;;;;;;;;5128010;27;45438;-75
2022/04/12 06:02:29;;;;;;;;;5.33;5.00;;;;;;;;5143272;27;45285;-75
2022/04/12 06:04:54;;;;;;;;;6.00;6.00;;;;;;;;5142166;27;45391;-75
2022/04/12 06:07:19;;;;;;;;;7.00;5.33;;;;;;;;5143186;27;45358;-75
2022/04/12 06:09:45;;;;;;;;;5.00;5.00;;;;;;;;5130302;27;45404;-75
2022/04/12 06:12:10;;;;;;;;;5.33;5.33;;;;;;;;5113334;27;45751;-75
2022/04/12 06:14:35;;;;;;;;;6.67;6.67;;;;;;;;5117466;27;45372;-75
2022/04/12 06:17:00;;;;;;;;;8.67;7.33;;;;;;;;5123365;27;45392;-75
2022/04/12 06:19:25;;;;;;;;;6.67;6.67;;;;;;;;5120216;27;47213;-74
2022/04/12 06:21:51;;;;;;;;;6.33;6.33;;;;;;;;5134937;27;45321;-76
2022/04/12 06:24:16;;;;;;;;;7.00;7.00;;;;;;;;5141579;27;45334;-77
2022/04/12 06:26:41;;;;;;;;;7.00;7.00;;;;;;;;5106714;27;45452;-78
2022/04/12 06:29:06;;;;;;;;;6.33;6.33;;;;;;;;5101961;27;45413;-79
2022/04/12 06:31:32;;;;;;;;;7.00;6.67;;;;;;;;5101746;27;45346;-78
2022/04/12 06:33:57;;;;;;;;;8.00;8.00;;;;;;;;5107443;27;45411;-78
2022/04/12 06:36:22;;;;;;;;;6.00;6.00;;;;;;;;5122773;27;45614;-84
2022/04/12 06:38:47;;;;;;;;;6.00;6.00;;;;;;;;5122539;27;46745;-80
2022/04/12 06:41:13;;;;;;;;;6.00;6.00;;;;;;;;5111224;27;45590;-81
2022/04/12 06:43:38;;;;;;;;;5.67;5.67;;;;;;;;5120508;27;45381;-74
2022/04/12 06:46:03;;;;;;;;;15.67;14.00;;;;;;;;5121475;27;45288;-76
2022/04/12 06:48:29;;;;;;;;;7.67;7.67;;;;;;;;5142608;27;46472;-76
2022/04/12 06:50:55;;;;;;;;;7.00;7.00;;;;;;;;5142756;27;45283;-77
2022/04/12 06:53:21;;;;;;;;;6.00;5.00;;;;;;;;5142600;27;45465;-76
2022/04/12 06:55:47;;;;;;;;;16.67;16.00;;;;;;;;5120969;27;46020;-76
2022/04/12 06:58:12;;;;;;;;;7.33;7.00;;;;;;;;5119156;27;47131;-75
2022/04/12 07:00:39;;;;;;;;;6.00;5.00;;;;;;;;5120703;27;45296;-76
2022/04/12 07:03:05;;;;;;;;;4.67;4.67;;;;;;;;5120295;27;45379;-75
2022/04/12 07:05:30;;;;;;;;;4.00;4.00;;;;;;;;5121392;27;45452;-75
2022/04/12 07:07:57;;;;;;;;;5.00;5.00;;;;;;;;5121278;27;45506;-75
2022/04/12 07:10:22;;;;;;;;;4.00;4.00;;;;;;;;5121727;27;45323;-75
2022/04/12 07:12:53;;;;;;;;;6.33;6.33;;;;;;;;5121733;27;45305;-75
2022/04/12 07:15:18;;;;;;;;;5.33;4.33;;;;;;;;5127744;27;45476;-75
2022/04/12 07:17:43;;;;;;;;;5.67;5.67;;;;;;;;5124651;27;46339;-75
2022/04/12 07:20:09;;;;;;;;;5.33;5.33;;;;;;;;5120924;27;45394;-75
2022/04/12 07:22:35;;;;;;;;;5.33;4.00;;;;;;;;5121521;27;45457;-74
2022/04/12 07:25:00;;;;;;;;;5.33;5.33;;;;;;;;5121583;27;45301;-75
2022/04/12 07:27:25;;;;;;;;;3.00;3.00;;;;;;;;5119224;27;47001;-75
2022/04/12 07:29:50;;;;;;;;;6.00;6.00;;;;;;;;5121651;27;45323;-75
2022/04/12 07:32:15;;;;;;;;;3.67;3.33;;;;;;;;5120806;27;45355;-76
2022/04/12 07:34:41;;;;;;;;;5.00;5.00;;;;;;;;5122298;27;45318;-75
2022/04/12 07:37:06;;;;;;;;;4.00;3.33;;;;;;;;5120918;27;45474;-77
2022/04/12 07:39:31;;;;;;;;;7.33;6.00;;;;;;;;5120983;27;45442;-75
2022/04/12 07:41:56;;;;;;;;;5.33;4.33;;;;;;;;5123919;27;45304;-75
2022/04/12 07:44:22;;;;;;;;;3.33;3.33;;;;;;;;5120606;27;45859;-75
2022/04/12 07:46:47;;;;;;;;;5.00;5.00;;;;;;;;5121365;27;46120;-75
2022/04/12 07:49:13;;;;;;;;;6.00;6.00;;;;;;;;5105335;27;45309;-75
2022/04/12 07:51:38;;;;;;;;;3.67;3.67;;;;;;;;5117627;27;45239;-75
2022/04/12 07:54:04;;;;;;;;;6.33;4.00;;;;;;;;5119613;27;47030;-75
2022/04/12 07:56:30;;;;;;;;;6.67;6.00;;;;;;;;5120714;27;45339;-75
2022/04/12 07:58:55;;;;;;;;;4.33;3.33;;;;;;;;5120869;27;45224;-74
2022/04/12 08:01:20;;;;;;;;;6.00;5.33;;;;;;;;5119691;27;45369;-75
2022/04/12 08:03:46;;;;;;;;;5.33;4.33;;;;;;;;5119850;27;46056;-75
2022/04/12 08:06:12;;;;;;;;;4.00;4.00;;;;;;;;5119821;27;47532;-75
2022/04/12 08:08:37;;;;;;;;;4.00;4.00;;;;;;;;5121362;27;45251;-75
2022/04/12 08:11:02;;;;;;;;;7.00;4.00;;;;;;;;5119648;27;45351;-76
2022/04/12 08:13:28;;;;;;;;;5.00;5.00;;;;;;;;5121061;27;45259;-75
2022/04/12 08:15:53;;;;;;;;;4.33;4.00;;;;;;;;5132375;27;45308;-75
2022/04/12 08:18:19;;;;;;;;;6.33;4.67;;;;;;;;5141340;27;45320;-75
2022/04/12 08:20:44;;;;;;;;;8.00;8.00;;;;;;;;5141406;27;45344;-74
2022/04/12 08:23:09;;;;;;;;;7.33;7.00;;;;;;;;5139616;27;46109;-75
2022/04/12 08:25:34;;;;;;;;;7.00;7.00;;;;;;;;5141498;27;45299;-75
2022/04/12 08:28:00;;;;;;;;;8.00;8.00;;;;;;;;5141470;27;45540;-74
2022/04/12 08:30:26;;;;;;;;;4.33;4.33;;;;;;;;5142586;27;45377;-76
2022/04/12 08:32:51;;;;;;;;;6.00;6.00;;;;;;;;5141067;27;45661;-75
2022/04/12 08:35:16;;;;;;;;;5.33;5.33;;;;;;;;5141006;27;45542;-75
2022/04/12 08:37:43;;;;;;;;;7.33;7.33;;;;;;;;5144514;27;45272;-76
2022/04/12 08:40:09;;;;;;;;;10.00;9.00;;;;;;;;5145073;27;45352;-76
2022/04/12 08:42:35;;;;;;;;;13.33;10.00;;;;;;;;5145155;27;45538;-75
2022/04/12 08:45:02;;;;;;;;;12.00;12.00;;;;;;;;5145172;27;45272;-75
2022/04/12 08:47:28;;;;;;;;;12.00;12.00;;;;;;;;5144243;27;45547;-75
2022/04/12 08:49:54;;;;;;;;;11.33;9.00;;;;;;;;5145114;27;45274;-75
2022/04/12 08:52:21;;;;;;;;;9.33;8.67;;;;;;;;5144321;27;45426;-76
2022/04/12 08:54:47;;;;;;;;;11.67;11.67;;;;;;;;5144467;27;46547;-75
2022/04/12 08:57:12;;;;;;;;;11.00;9.67;;;;;;;;5144449;27;45393;-75
2022/04/12 08:59:38;;;;;;;;;9.33;9.33;;;;;;;;5138704;27;45307;-75
2022/04/12 09:02:06;;;;;;;;;6.67;6.67;;;;;;;;5123468;27;46030;-74
2022/04/12 09:04:33;;;;;;;;;7.67;7.00;;;;;;;;5123420;27;46174;-74
2022/04/12 09:06:59;;;;;;;;;9.00;8.33;;;;;;;;5105276;27;45235;-73
2022/04/12 09:09:25;;;;;;;;;7.00;6.00;;;;;;;;5102997;27;45337;-75
2022/04/12 09:12:01;;;;;;;;;8.67;8.67;;;;;;;;5083856;27;46549;-74
2022/04/12 09:14:46;;;;;;;;;9.00;9.00;;;;;;;;5105424;27;45420;-75
2022/04/12 09:17:15;;;;;;;;;9.33;7.67;;;;;;;;5102282;27;45324;-75
2022/04/12 09:19:40;;;;;;;;;5.67;2.67;;;;;;;;5102852;27;45335;-75
2022/04/12 09:22:15;;;;;;;;;3.67;3.67;;;;;;;;5102580;27;45525;-74
2022/04/12 09:24:54;;;;;;;;;4.67;4.00;;;;;;;;5101249;27;47623;-74
2022/04/12 09:27:21;;;;;;;;;3.00;3.00;;;;;;;;5102786;27;45238;-74
2022/04/12 09:29:50;;;;;;;;;2.00;2.00;;;;;;;;5102613;27;45574;-74
2022/04/12 09:32:18;;;;;;;;;4.67;4.67;;;;;;;;5083783;27;46145;-74
2022/04/12 09:34:44;;;;;;;;;4.33;2.33;;;;;;;;5083953;27;47087;-74
2022/04/12 09:37:29;;;;;;;;;1.67;1.67;;;;;;;;5100899;27;45264;-74
2022/04/12 09:39:55;;;;;;;;;3.00;3.00;;;;;;;;5105710;27;45341;-74
2022/04/12 09:42:57;;;;;;;;;3.33;2.33;;;;;;;;5122020;27;45354;-75
2022/04/12 09:45:23;;;;;;;;;3.00;3.00;;;;;;;;5078764;28;46212;-74
2022/04/12 09:47:50;;;;;;;;;1.00;0.00;;;;;;;;5092963;27;46351;-74
2022/04/12 09:50:15;;;;;;;;;3.00;3.00;;;;;;;;5122657;27;45290;-74
2022/04/12 09:52:51;;;;;;;;;2.33;2.33;;;;;;;;5122857;27;45412;-75
2022/04/12 09:55:31;;;;;;;;;2.00;2.00;;;;;;;;5122376;27;45307;-74
2022/04/12 09:57:57;;;;;;;;;6.00;4.67;;;;;;;;5121290;27;46107;-74
2022/04/12 10:00:22;;;;;;;;;2.67;2.00;;;;;;;;5121546;27;45302;-74
2022/04/12 10:02:48;;;;;;;;;4.33;3.00;;;;;;;;5121237;27;46505;-74
2022/04/12 10:05:13;;;;;;;;;2.33;1.00;;;;;;;;5105870;27;46427;-74
2022/04/12 10:07:38;;;;;;;;;3.00;3.00;;;;;;;;5100022;27;45334;-77
2022/04/12 10:10:05;;;;;;;;;2.33;2.00;;;;;;;;5100766;27;45461;-76
2022/04/12 10:12:31;;;;;;;;;2.33;2.00;;;;;;;;5101718;27;45306;-75
2022/04/12 10:14:56;;;;;;;;;2.33;1.00;;;;;;;;5108455;27;45387;-76
2022/04/12 10:17:22;;;;;;;;;1.67;1.67;;;;;;;;5143259;27;45360;-76
2022/04/12 10:19:48;;;;;;;;;2.67;2.67;;;;;;;;5143291;27;45326;-76
2022/04/12 10:22:13;;;;;;;;;1.67;1.67;;;;;;;;5142935;27;45449;-76
2022/04/12 10:24:39;;;;;;;;;4.00;3.00;;;;;;;;5141831;27;48294;-75
2022/04/12 10:27:05;;;;;;;;;3.00;3.00;;;;;;;;5142993;27;45395;-76
2022/04/12 10:29:30;;;;;;;;;2.00;2.00;;;;;;;;5143342;27;45306;-76
2022/04/12 10:31:57;;;;;;;;;4.00;4.00;;;;;;;;5142818;27;45253;-76
2022/04/12 10:34:22;;;;;;;;;2.33;2.33;;;;;;;;5142834;27;46474;-76
2022/04/12 10:37:05;;;;;;;;;3.33;2.67;;;;;;;;5141442;27;45294;-76
2022/04/12 10:39:31;;;;;;;;;2.33;2.33;;;;;;;;5142980;27;45395;-76
2022/04/12 10:41:57;;;;;;;;;1.67;1.67;;;;;;;;5141023;27;46621;-76
2022/04/12 10:44:22;;;;;;;;;3.00;3.00;;;;;;;;5142629;27;46364;-76
2022/04/12 10:46:49;;;;;;;;;5.00;2.00;;;;;;;;5141401;27;45496;-75
2022/04/12 10:49:17;;;;;;;;;3.00;2.00;;;;;;;;5141372;27;45499;-76
2022/04/12 10:51:43;;;;;;;;;2.00;2.00;;;;;;;;5142519;27;45499;-76
2022/04/12 10:54:29;;;;;;;;;3.00;2.33;;;;;;;;5142564;27;45948;-76
2022/04/12 10:57:13;;;;;;;;;2.00;1.00;;;;;;;;5142406;27;45426;-76
2022/04/12 10:59:39;;;;;;;;;1.00;1.00;;;;;;;;5142219;27;45291;-76
2022/04/12 11:02:10;;;;;;;;;2.00;2.00;;;;;;;;5142470;27;45380;-76
2022/04/12 11:04:35;;;;;;;;;5.67;5.67;;;;;;;;5142400;27;46792;-76
2022/04/12 11:07:01;;;;;;;;;4.67;4.67;;;;;;;;5142333;27;45295;-76
2022/04/12 11:09:27;;;;;;;;;2.67;2.67;;;;;;;;5142471;27;45428;-75
2022/04/12 11:11:52;;;;;;;;;2.67;2.67;;;;;;;;5142081;27;45336;-75
2022/04/12 11:14:21;;;;;;;;;4.00;2.00;;;;;;;;5142109;27;45794;-75
2022/04/12 11:16:51;;;;;;;;;3.33;3.33;;;;;;;;5122863;27;45440;-76
2022/04/12 11:19:24;;;;;;;;;2.33;2.33;;;;;;;;5121470;27;45343;-76
2022/04/12 11:21:50;;;;;;;;;3.33;3.33;;;;;;;;5118524;27;46058;-76
2022/04/12 11:24:17;;;;;;;;;4.00;3.33;;;;;;;;5118656;27;47231;-80
2022/04/12 11:26:48;;;;;;;;;2.00;2.00;;;;;;;;5108790;27;45547;-79
2022/04/12 11:29:13;;;;;;;;;2.00;2.00;;;;;;;;5118894;27;45320;-76
2022/04/12 11:31:48;;;;;;;;;4.33;3.00;;;;;;;;5100887;27;46074;-78
2022/04/12 11:34:14;;;;;;;;;4.67;4.67;;;;;;;;5109020;27;46019;-78
2022/04/12 11:36:40;;;;;;;;;2.33;2.33;;;;;;;;5120878;27;45161;-78
2022/04/12 11:39:06;;;;;;;;;4.00;2.67;;;;;;;;5127438;27;45579;-80
2022/04/12 11:41:31;;;;;;;;;2.33;2.33;;;;;;;;5119664;27;46000;-78
2022/04/12 11:44:03;;;;;;;;;4.00;4.00;;;;;;;;5137222;27;45351;-78
2022/04/12 11:46:29;;;;;;;;;4.00;4.00;;;;;;;;5143921;27;45304;-78
2022/04/12 11:49:02;;;;;;;;;5.67;4.67;;;;;;;;5145963;27;45336;-80
2022/04/12 11:51:27;;;;;;;;;5.00;4.00;;;;;;;;5149553;27;45267;-79
2022/04/12 11:53:53;;;;;;;;;5.00;3.00;;;;;;;;5143241;27;48615;-78
2022/04/12 11:56:18;;;;;;;;;5.00;4.00;;;;;;;;5140711;27;45216;-83
2022/04/12 11:58:44;;;;;;;;;4.00;3.00;;;;;;;;5123844;27;45500;-79
2022/04/12 12:01:11;;;;;;;;;2.00;2.00;;;;;;;;5105560;27;45281;-80
2022/04/12 12:03:36;;;;;;;;;3.33;3.33;;;;;;;;5114568;27;45664;-81
2022/04/12 12:06:02;;;;;;;;;2.00;2.00;;;;;;;;5111497;27;45631;-78
2022/04/12 12:08:27;;;;;;;;;2.67;2.67;;;;;;;;5114436;27;45471;-82
2022/04/12 12:10:53;;;;;;;;;3.00;2.00;;;;;;;;5109696;27;47105;-81
2022/04/12 12:13:22;;;;;;;;;4.00;3.33;;;;;;;;5107512;27;45480;-81
2022/04/12 12:15:47;;;;;;;;;3.67;3.67;;;;;;;;5103604;27;45466;-82
2022/04/12 12:18:15;;;;;;;;;4.33;2.67;;;;;;;;5140855;27;45316;-82
2022/04/12 12:20:41;;;;;;;;;2.67;2.67;;;;;;;;5142438;27;45485;-80
2022/04/12 12:23:09;;;;;;;;;2.00;2.00;;;;;;;;5139593;27;47892;-80
2022/04/12 12:25:36;;;;;;;;;2.00;2.00;;;;;;;;5120912;27;45412;-79
2022/04/12 12:28:01;;;;;;;;;2.33;2.33;;;;;;;;5117246;27;45387;-80
2022/04/12 12:30:32;;;;;;;;;2.00;2.00;;;;;;;;5116884;27;45692;-80
2022/04/12 12:32:57;;;;;;;;;4.67;2.67;;;;;;;;5113920;27;45507;-80
2022/04/12 12:35:26;;;;;;;;;2.00;1.00;;;;;;;;5119361;27;45515;-79
2022/04/12 12:38:00;;;;;;;;;4.33;2.33;;;;;;;;5118447;27;45388;-79
2022/04/12 12:40:26;;;;;;;;;2.67;2.67;;;;;;;;5118116;27;46339;-81
2022/04/12 12:42:52;;;;;;;;;3.67;2.33;;;;;;;;5118045;27;47280;-80
2022/04/12 12:45:18;;;;;;;;;4.00;2.00;;;;;;;;5138774;27;45241;-81
2022/04/12 12:47:45;;;;;;;;;5.00;3.00;;;;;;;;5143286;27;45226;-80
2022/04/12 12:50:11;;;;;;;;;2.00;2.00;;;;;;;;5143513;27;45258;-79
2022/04/12 12:52:36;;;;;;;;;2.33;2.00;;;;;;;;5143505;27;46664;-80
2022/04/12 12:55:02;;;;;;;;;2.00;2.00;;;;;;;;5141400;27;45270;-80
2022/04/12 12:57:36;;;;;;;;;1.00;1.00;;;;;;;;5112225;27;45475;-80
2022/04/12 13:00:03;;;;;;;;;2.67;2.67;;;;;;;;5120709;27;45266;-81
2022/04/12 13:02:32;;;;;;;;;3.67;3.67;;;;;;;;5119858;27;48480;-80
2022/04/12 13:05:01;;;;;;;;;2.00;2.00;;;;;;;;5121320;27;45304;-79
2022/04/12 13:07:30;;;;;;;;;4.00;2.00;;;;;;;;5120569;27;45350;-79
2022/04/12 13:10:04;;;;;;;;;4.33;3.33;;;;;;;;5124554;27;45965;-78
2022/04/12 13:12:29;;;;;;;;;3.33;2.33;;;;;;;;5127708;27;45400;-80
2022/04/12 13:14:55;;;;;;;;;4.33;4.00;;;;;;;;5125923;27;45308;-79
2022/04/12 13:17:20;;;;;;;;;4.00;2.00;;;;;;;;5146313;27;45373;-79
2022/04/12 13:19:45;;;;;;;;;4.00;4.00;;;;;;;;5147033;27;45309;-81
2022/04/12 13:22:12;;;;;;;;;5.67;5.67;;;;;;;;5146935;27;45269;-80
2022/04/12 13:24:37;;;;;;;;;5.00;4.00;;;;;;;;5151621;27;45563;-80
2022/04/12 13:27:03;;;;;;;;;4.00;4.00;;;;;;;;5150386;27;45143;-81
2022/04/12 13:29:28;;;;;;;;;5.33;5.33;;;;;;;;5128750;27;45151;-81
2022/04/12 13:31:54;;;;;;;;;5.67;5.67;;;;;;;;5133204;27;46091;-80
2022/04/12 13:34:19;;;;;;;;;11.00;8.00;;;;;;;;5130700;27;45343;-79
2022/04/12 13:36:45;;;;;;;;;5.00;5.00;;;;;;;;5121126;27;45367;-80
2022/04/12 13:39:10;;;;;;;;;3.00;2.67;;;;;;;;5133606;27;45291;-80
2022/04/12 13:41:36;;;;;;;;;5.67;4.67;;;;;;;;5146448;27;45617;-80
2022/04/12 13:44:02;;;;;;;;;3.33;3.33;;;;;;;;5142058;27;45703;-80
2022/04/12 13:46:27;;;;;;;;;3.33;3.00;;;;;;;;5145537;27;45549;-78
2022/04/12 13:48:52;;;;;;;;;4.00;3.67;;;;;;;;5148335;27;45726;-80
2022/04/12 13:51:17;;;;;;;;;3.00;2.00;;;;;;;;5152432;27;48307;-79
2022/04/12 13:53:43;;;;;;;;;6.33;5.00;;;;;;;;5148183;27;45360;-80
2022/04/12 13:56:08;;;;;;;;;4.33;3.00;;;;;;;;5143763;27;45334;-80
2022/04/12 13:58:34;;;;;;;;;5.00;5.00;;;;;;;;5145722;27;45389;-81
2022/04/12 14:01:00;;;;;;;;;4.00;4.00;;;;;;;;5138275;27;47193;-80
2022/04/12 14:03:25;;;;;;;;;3.00;3.00;;;;;;;;5149993;27;45365;-80
2022/04/12 14:05:51;;;;;;;;;3.00;3.00;;;;;;;;5146621;27;45298;-80
2022/04/12 14:08:17;;;;;;;;;3.67;3.67;;;;;;;;5149530;27;45423;-79
2022/04/12 14:10:44;;;;;;;;;3.33;3.00;;;;;;;;5147481;27;45580;-80
2022/04/12 14:13:09;;;;;;;;;2.67;2.67;;;;;;;;5150997;27;45279;-80
2022/04/12 14:15:34;;;;;;;;;3.67;2.33;;;;;;;;5150477;27;45688;-80
2022/04/12 14:17:59;;;;;;;;;3.67;2.00;;;;;;;;5145773;27;46064;-80
2022/04/12 14:20:26;;;;;;;;;2.67;2.67;;;;;;;;5149223;27;47373;-80
2022/04/12 14:22:51;;;;;;;;;3.33;2.00;;;;;;;;5147527;27;45430;-79
2022/04/12 14:25:16;;;;;;;;;3.00;2.33;;;;;;;;5148347;27;45323;-79
2022/04/12 14:27:42;;;;;;;;;2.33;2.33;;;;;;;;5145942;27;46067;-80
2022/04/12 14:30:07;;;;;;;;;3.00;1.67;;;;;;;;5145843;27;46395;-78
2022/04/12 14:32:32;;;;;;;;;4.00;2.67;;;;;;;;5144498;27;45357;-78
2022/04/12 14:34:58;;;;;;;;;2.00;2.00;;;;;;;;5142687;27;45462;-78
2022/04/12 14:37:23;;;;;;;;;3.00;3.00;;;;;;;;5142059;27;46297;-77
2022/04/12 14:39:48;;;;;;;;;3.33;2.00;;;;;;;;5143519;27;47961;-79